sensor_id;sensor_type;location;lat;lon;timestamp;P1;durP1;ratioP1;P2;durP2;ratioP2
37169;SDS011;23062;13.952;100.608;2022-08-02T00:01:56;4.00;;;3.00;;
37169;SDS011;23062;13.952;100.608;2022-08-02T00:06:45;5.00;;;3.00;;
37169;SDS011;23062;13.952;100.608;2022-08-02T00:11:35;6.00;;;4.00;;
37169;SDS011;23062;13.952;100.608;2022-08-02T00:16:25;6.00;;;4.00;;
37169;SDS011;23062;13.952;100.608;2022-08-02T00:21:15;6.00;;;4.00;;
37169;SDS011;23062;13.952;100.608;2022-08-02T00:26:05;9.00;;;6.00;;
37169;SDS011;23062;13.952;100.608;2022-08-02T00:30:55;8.00;;;5.00;;
37169;SDS011;23062;13.952;100.608;2022-08-02T00:35:45;12.00;;;8.00;;
37169;SDS011;23062;13.952;100.608;2022-08-02T00:40:34;7.00;;;5.00;;
37169;SDS011;23062;13.952;100.608;2022-08-02T00:45:24;9.00;;;7.00;;
37169;SDS011;23062;13.952;100.608;2022-08-02T00:50:15;9.00;;;7.00;;
37169;SDS011;23062;13.952;100.608;2022-08-02T00:55:05;9.00;;;6.00;;
37169;SDS011;23062;13.952;100.608;2022-08-02T00:59:55;7.00;;;5.00;;
37169;SDS011;23062;13.952;100.608;2022-08-02T01:04:45;6.00;;;4.00;;
37169;SDS011;23062;13.952;100.608;2022-08-02T01:09:34;7.00;;;5.00;;
37169;SDS011;23062;13.952;100.608;2022-08-02T01:14:24;8.00;;;6.00;;
37169;SDS011;23062;13.952;100.608;2022-08-02T01:19:23;9.00;;;6.00;;
37169;SDS011;23062;13.952;100.608;2022-08-02T01:24:23;7.00;;;5.00;;
37169;SDS011;23062;13.952;100.608;2022-08-02T01:29:19;9.00;;;6.00;;
37169;SDS011;23062;13.952;100.608;2022-08-02T01:39:18;9.00;;;6.00;;
37169;SDS011;23062;13.952;100.608;2022-08-02T01:44:09;11.00;;;7.00;;
37169;SDS011;23062;13.952;100.608;2022-08-02T01:49:02;11.00;;;8.00;;
37169;SDS011;23062;13.952;100.608;2022-08-02T01:53:53;13.00;;;9.00;;
37169;SDS011;23062;13.952;100.608;2022-08-02T01:58:43;14.00;;;10.00;;
37169;SDS011;23062;13.952;100.608;2022-08-02T02:03:35;15.00;;;11.00;;
37169;SDS011;23062;13.952;100.608;2022-08-02T02:08:32;14.00;;;10.00;;
37169;SDS011;23062;13.952;100.608;2022-08-02T02:13:24;15.00;;;11.00;;
37169;SDS011;23062;13.952;100.608;2022-08-02T02:18:20;17.00;;;12.00;;
37169;SDS011;23062;13.952;100.608;2022-08-02T02:23:15;15.00;;;11.00;;
37169;SDS011;23062;13.952;100.608;2022-08-02T02:28:12;14.00;;;10.00;;
37169;SDS011;23062;13.952;100.608;2022-08-02T02:33:04;15.00;;;11.00;;
37169;SDS011;23062;13.952;100.608;2022-08-02T02:37:58;15.00;;;11.00;;
37169;SDS011;23062;13.952;100.608;2022-08-02T02:42:50;15.00;;;11.00;;
37169;SDS011;23062;13.952;100.608;2022-08-02T02:47:42;14.00;;;11.00;;
37169;SDS011;23062;13.952;100.608;2022-08-02T02:52:34;10.00;;;7.00;;
37169;SDS011;23062;13.952;100.608;2022-08-02T02:57:25;7.00;;;5.00;;
37169;SDS011;23062;13.952;100.608;2022-08-02T03:02:17;8.00;;;6.00;;
37169;SDS011;23062;13.952;100.608;2022-08-02T03:07:08;3.00;;;2.00;;
37169;SDS011;23062;13.952;100.608;2022-08-02T03:11:58;5.00;;;3.00;;
37169;SDS011;23062;13.952;100.608;2022-08-02T03:16:49;4.00;;;3.00;;
37169;SDS011;23062;13.952;100.608;2022-08-02T03:21:44;4.00;;;2.00;;
37169;SDS011;23062;13.952;100.608;2022-08-02T03:26:34;2.00;;;1.00;;
37169;SDS011;23062;13.952;100.608;2022-08-02T03:31:24;2.00;;;1.00;;
37169;SDS011;23062;13.952;100.608;2022-08-02T03:36:14;2.00;;;1.00;;
37169;SDS011;23062;13.952;100.608;2022-08-02T03:41:05;2.00;;;1.00;;
37169;SDS011;23062;13.952;100.608;2022-08-02T03:45:57;1.00;;;0.00;;
37169;SDS011;23062;13.952;100.608;2022-08-02T03:50:48;1.00;;;0.00;;
37169;SDS011;23062;13.952;100.608;2022-08-02T03:55:39;1.00;;;0.00;;
37169;SDS011;23062;13.952;100.608;2022-08-02T04:00:29;2.00;;;1.00;;
37169;SDS011;23062;13.952;100.608;2022-08-02T04:05:19;0.00;;;0.00;;
37169;SDS011;23062;13.952;100.608;2022-08-02T04:10:09;1.00;;;0.00;;
37169;SDS011;23062;13.952;100.608;2022-08-02T04:14:59;1.00;;;0.00;;
37169;SDS011;23062;13.952;100.608;2022-08-02T04:19:54;3.00;;;1.00;;
37169;SDS011;23062;13.952;100.608;2022-08-02T04:24:46;1.00;;;0.00;;
37169;SDS011;23062;13.952;100.608;2022-08-02T04:29:37;1.00;;;0.00;;
37169;SDS011;23062;13.952;100.608;2022-08-02T04:34:28;2.00;;;1.00;;
37169;SDS011;23062;13.952;100.608;2022-08-02T04:39:18;3.00;;;1.00;;
37169;SDS011;23062;13.952;100.608;2022-08-02T04:44:07;2.00;;;1.00;;
37169;SDS011;23062;13.952;100.608;2022-08-02T04:48:57;2.00;;;1.00;;
37169;SDS011;23062;13.952;100.608;2022-08-02T04:53:47;2.00;;;0.93;;
37169;SDS011;23062;13.952;100.608;2022-08-02T04:58:36;3.00;;;1.00;;
37169;SDS011;23062;13.952;100.608;2022-08-02T05:03:26;4.00;;;2.00;;
37169;SDS011;23062;13.952;100.608;2022-08-02T05:08:16;3.00;;;2.00;;
37169;SDS011;23062;13.952;100.608;2022-08-02T05:13:06;4.00;;;3.00;;
37169;SDS011;23062;13.952;100.608;2022-08-02T05:17:56;2.00;;;1.00;;
37169;SDS011;23062;13.952;100.608;2022-08-02T05:22:46;2.00;;;1.00;;
37169;SDS011;23062;13.952;100.608;2022-08-02T05:27:36;2.00;;;1.00;;
37169;SDS011;23062;13.952;100.608;2022-08-02T05:32:26;2.00;;;1.00;;
37169;SDS011;23062;13.952;100.608;2022-08-02T05:37:15;2.00;;;1.00;;
37169;SDS011;23062;13.952;100.608;2022-08-02T05:42:05;2.00;;;1.00;;
37169;SDS011;23062;13.952;100.608;2022-08-02T05:46:55;2.00;;;1.00;;
37169;SDS011;23062;13.952;100.608;2022-08-02T05:51:48;1.00;;;0.00;;
37169;SDS011;23062;13.952;100.608;2022-08-02T05:56:58;1.00;;;0.00;;
37169;SDS011;23062;13.952;100.608;2022-08-02T06:01:51;2.00;;;1.00;;
37169;SDS011;23062;13.952;100.608;2022-08-02T06:06:42;2.00;;;1.00;;
37169;SDS011;23062;13.952;100.608;2022-08-02T06:11:38;1.00;;;0.00;;
37169;SDS011;23062;13.952;100.608;2022-08-02T06:16:29;2.00;;;1.00;;
37169;SDS011;23062;13.952;100.608;2022-08-02T06:21:19;1.00;;;0.00;;
37169;SDS011;23062;13.952;100.608;2022-08-02T06:26:10;1.00;;;0.00;;
37169;SDS011;23062;13.952;100.608;2022-08-02T06:31:00;2.00;;;1.00;;
37169;SDS011;23062;13.952;100.608;2022-08-02T06:45:52;2.00;;;0.93;;
37169;SDS011;23062;13.952;100.608;2022-08-02T06:50:42;2.00;;;1.00;;
37169;SDS011;23062;13.952;100.608;2022-08-02T06:55:32;1.00;;;0.00;;
37169;SDS011;23062;13.952;100.608;2022-08-02T07:00:22;3.00;;;1.00;;
37169;SDS011;23062;13.952;100.608;2022-08-02T07:05:13;1.00;;;0.00;;
37169;SDS011;23062;13.952;100.608;2022-08-02T07:10:03;1.00;;;0.00;;
37169;SDS011;23062;13.952;100.608;2022-08-02T07:14:53;2.00;;;1.00;;
37169;SDS011;23062;13.952;100.608;2022-08-02T07:19:44;1.00;;;0.00;;
37169;SDS011;23062;13.952;100.608;2022-08-02T07:24:34;4.00;;;2.00;;
37169;SDS011;23062;13.952;100.608;2022-08-02T07:29:24;1.00;;;0.00;;
37169;SDS011;23062;13.952;100.608;2022-08-02T07:34:14;1.00;;;0.00;;
37169;SDS011;23062;13.952;100.608;2022-08-02T07:39:04;2.00;;;1.00;;
37169;SDS011;23062;13.952;100.608;2022-08-02T07:43:54;1.00;;;0.00;;
37169;SDS011;23062;13.952;100.608;2022-08-02T07:48:45;2.00;;;1.00;;
37169;SDS011;23062;13.952;100.608;2022-08-02T07:53:37;2.00;;;0.93;;
37169;SDS011;23062;13.952;100.608;2022-08-02T07:58:27;2.00;;;1.00;;
37169;SDS011;23062;13.952;100.608;2022-08-02T08:03:17;3.00;;;2.00;;
37169;SDS011;23062;13.952;100.608;2022-08-02T08:08:06;3.00;;;2.00;;
37169;SDS011;23062;13.952;100.608;2022-08-02T08:12:56;3.00;;;1.00;;
37169;SDS011;23062;13.952;100.608;2022-08-02T08:17:46;2.00;;;1.00;;
37169;SDS011;23062;13.952;100.608;2022-08-02T08:22:36;4.00;;;3.00;;
37169;SDS011;23062;13.952;100.608;2022-08-02T08:27:25;3.00;;;2.00;;
37169;SDS011;23062;13.952;100.608;2022-08-02T08:32:16;3.00;;;2.00;;
37169;SDS011;23062;13.952;100.608;2022-08-02T08:37:06;5.00;;;3.00;;
37169;SDS011;23062;13.952;100.608;2022-08-02T08:41:56;4.00;;;2.00;;
37169;SDS011;23062;13.952;100.608;2022-08-02T08:46:46;4.00;;;3.00;;
37169;SDS011;23062;13.952;100.608;2022-08-02T08:51:37;6.00;;;4.00;;
37169;SDS011;23062;13.952;100.608;2022-08-02T08:56:33;4.00;;;2.00;;
37169;SDS011;23062;13.952;100.608;2022-08-02T09:01:24;4.00;;;2.00;;
37169;SDS011;23062;13.952;100.608;2022-08-02T09:06:14;3.00;;;2.00;;
37169;SDS011;23062;13.952;100.608;2022-08-02T09:11:10;3.00;;;2.00;;
37169;SDS011;23062;13.952;100.608;2022-08-02T09:16:02;3.00;;;2.00;;
37169;SDS011;23062;13.952;100.608;2022-08-02T09:20:57;4.00;;;2.00;;
37169;SDS011;23062;13.952;100.608;2022-08-02T09:25:55;3.00;;;2.00;;
37169;SDS011;23062;13.952;100.608;2022-08-02T09:30:50;2.00;;;1.00;;
37169;SDS011;23062;13.952;100.608;2022-08-02T09:35:40;5.00;;;3.00;;
37169;SDS011;23062;13.952;100.608;2022-08-02T09:40:36;2.00;;;1.00;;
37169;SDS011;23062;13.952;100.608;2022-08-02T09:45:31;2.00;;;1.00;;
37169;SDS011;23062;13.952;100.608;2022-08-02T09:50:22;2.00;;;1.00;;
37169;SDS011;23062;13.952;100.608;2022-08-02T09:55:12;2.00;;;1.00;;
37169;SDS011;23062;13.952;100.608;2022-08-02T10:00:05;5.00;;;3.00;;
37169;SDS011;23062;13.952;100.608;2022-08-02T10:04:55;2.00;;;1.00;;
37169;SDS011;23062;13.952;100.608;2022-08-02T10:09:46;4.00;;;2.00;;
37169;SDS011;23062;13.952;100.608;2022-08-02T10:14:36;2.00;;;1.00;;
37169;SDS011;23062;13.952;100.608;2022-08-02T10:19:28;2.00;;;1.00;;
37169;SDS011;23062;13.952;100.608;2022-08-02T10:24:22;5.00;;;3.00;;
37169;SDS011;23062;13.952;100.608;2022-08-02T10:29:16;2.00;;;1.00;;
37169;SDS011;23062;13.952;100.608;2022-08-02T10:34:09;2.00;;;1.00;;
37169;SDS011;23062;13.952;100.608;2022-08-02T10:39:00;4.00;;;2.00;;
37169;SDS011;23062;13.952;100.608;2022-08-02T10:43:51;3.00;;;2.00;;
37169;SDS011;23062;13.952;100.608;2022-08-02T10:54:09;3.00;;;2.00;;
37169;SDS011;23062;13.952;100.608;2022-08-02T10:59:22;19.00;;;14.00;;
37169;SDS011;23062;13.952;100.608;2022-08-02T11:04:16;9.00;;;6.00;;
37169;SDS011;23062;13.952;100.608;2022-08-02T11:14:19;4.00;;;3.00;;
37169;SDS011;23062;13.952;100.608;2022-08-02T11:19:10;2.00;;;1.00;;
37169;SDS011;23062;13.952;100.608;2022-08-02T11:29:14;5.00;;;3.00;;
37169;SDS011;23062;13.952;100.608;2022-08-02T11:34:04;2.00;;;1.00;;
37169;SDS011;23062;13.952;100.608;2022-08-02T11:39:10;3.00;;;2.00;;
37169;SDS011;23062;13.952;100.608;2022-08-02T11:44:01;3.00;;;2.00;;
37169;SDS011;23062;13.952;100.608;2022-08-02T11:48:51;4.00;;;2.00;;
37169;SDS011;23062;13.952;100.608;2022-08-02T11:53:50;2.00;;;1.00;;
37169;SDS011;23062;13.952;100.608;2022-08-02T11:59:05;2.00;;;1.00;;
37169;SDS011;23062;13.952;100.608;2022-08-02T12:03:50;2.00;;;1.00;;
37169;SDS011;23062;13.952;100.608;2022-08-02T12:08:40;4.00;;;3.00;;
37169;SDS011;23062;13.952;100.608;2022-08-02T12:13:43;3.00;;;2.00;;
37169;SDS011;23062;13.952;100.608;2022-08-02T12:18:33;3.00;;;2.00;;
37169;SDS011;23062;13.952;100.608;2022-08-02T12:23:50;2.00;;;1.00;;
37169;SDS011;23062;13.952;100.608;2022-08-02T12:28:40;2.00;;;1.00;;
37169;SDS011;23062;13.952;100.608;2022-08-02T12:33:43;2.00;;;1.00;;
37169;SDS011;23062;13.952;100.608;2022-08-02T12:38:36;2.00;;;1.00;;
37169;SDS011;23062;13.952;100.608;2022-08-02T12:43:27;2.00;;;1.00;;
37169;SDS011;23062;13.952;100.608;2022-08-02T12:48:37;2.00;;;1.00;;
37169;SDS011;23062;13.952;100.608;2022-08-02T12:53:31;2.00;;;1.00;;
37169;SDS011;23062;13.952;100.608;2022-08-02T12:58:22;3.00;;;1.00;;
37169;SDS011;23062;13.952;100.608;2022-08-02T13:03:13;3.00;;;2.00;;
37169;SDS011;23062;13.952;100.608;2022-08-02T13:08:04;5.00;;;3.00;;
37169;SDS011;23062;13.952;100.608;2022-08-02T13:12:55;4.00;;;2.00;;
37169;SDS011;23062;13.952;100.608;2022-08-02T13:17:45;4.00;;;3.00;;
37169;SDS011;23062;13.952;100.608;2022-08-02T13:22:35;3.00;;;2.00;;
37169;SDS011;23062;13.952;100.608;2022-08-02T13:27:25;2.00;;;1.00;;
37169;SDS011;23062;13.952;100.608;2022-08-02T13:32:17;4.00;;;2.00;;
37169;SDS011;23062;13.952;100.608;2022-08-02T13:37:08;3.00;;;2.00;;
37169;SDS011;23062;13.952;100.608;2022-08-02T13:42:00;4.00;;;3.00;;
37169;SDS011;23062;13.952;100.608;2022-08-02T13:46:49;3.00;;;2.00;;
37169;SDS011;23062;13.952;100.608;2022-08-02T13:51:39;2.00;;;1.00;;
37169;SDS011;23062;13.952;100.608;2022-08-02T13:56:29;3.00;;;2.00;;
37169;SDS011;23062;13.952;100.608;2022-08-02T14:01:19;4.00;;;2.00;;
37169;SDS011;23062;13.952;100.608;2022-08-02T14:06:09;3.00;;;2.00;;
37169;SDS011;23062;13.952;100.608;2022-08-02T14:10:59;2.00;;;1.00;;
37169;SDS011;23062;13.952;100.608;2022-08-02T14:15:49;5.00;;;3.00;;
37169;SDS011;23062;13.952;100.608;2022-08-02T14:20:39;5.00;;;3.00;;
37169;SDS011;23062;13.952;100.608;2022-08-02T14:25:29;2.00;;;1.00;;
37169;SDS011;23062;13.952;100.608;2022-08-02T14:30:20;2.00;;;1.00;;
37169;SDS011;23062;13.952;100.608;2022-08-02T14:35:10;2.00;;;1.00;;
37169;SDS011;23062;13.952;100.608;2022-08-02T14:40:01;1.00;;;0.00;;
37169;SDS011;23062;13.952;100.608;2022-08-02T14:44:51;3.00;;;2.00;;
37169;SDS011;23062;13.952;100.608;2022-08-02T14:49:42;2.00;;;1.00;;
37169;SDS011;23062;13.952;100.608;2022-08-02T14:54:32;3.00;;;2.00;;
37169;SDS011;23062;13.952;100.608;2022-08-02T14:59:22;3.00;;;2.00;;
37169;SDS011;23062;13.952;100.608;2022-08-02T15:04:12;2.00;;;1.00;;
37169;SDS011;23062;13.952;100.608;2022-08-02T15:09:02;3.00;;;2.00;;
37169;SDS011;23062;13.952;100.608;2022-08-02T15:13:52;2.00;;;0.93;;
37169;SDS011;23062;13.952;100.608;2022-08-02T15:18:44;3.00;;;2.00;;
37169;SDS011;23062;13.952;100.608;2022-08-02T15:23:34;2.00;;;1.00;;
37169;SDS011;23062;13.952;100.608;2022-08-02T15:28:25;2.00;;;1.00;;
37169;SDS011;23062;13.952;100.608;2022-08-02T15:33:16;2.00;;;1.00;;
37169;SDS011;23062;13.952;100.608;2022-08-02T15:38:06;2.00;;;1.00;;
37169;SDS011;23062;13.952;100.608;2022-08-02T15:42:57;3.00;;;2.00;;
37169;SDS011;23062;13.952;100.608;2022-08-02T15:47:46;2.00;;;1.00;;
37169;SDS011;23062;13.952;100.608;2022-08-02T15:52:36;4.00;;;2.00;;
37169;SDS011;23062;13.952;100.608;2022-08-02T15:57:26;2.00;;;1.00;;
37169;SDS011;23062;13.952;100.608;2022-08-02T16:02:16;2.00;;;1.00;;
37169;SDS011;23062;13.952;100.608;2022-08-02T16:07:06;2.00;;;0.93;;
37169;SDS011;23062;13.952;100.608;2022-08-02T16:11:56;2.00;;;1.00;;
37169;SDS011;23062;13.952;100.608;2022-08-02T16:16:46;3.00;;;2.00;;
37169;SDS011;23062;13.952;100.608;2022-08-02T16:21:36;3.00;;;2.00;;
37169;SDS011;23062;13.952;100.608;2022-08-02T16:26:25;2.00;;;1.00;;
37169;SDS011;23062;13.952;100.608;2022-08-02T16:31:15;2.00;;;1.00;;
37169;SDS011;23062;13.952;100.608;2022-08-02T16:36:04;3.00;;;1.00;;
37169;SDS011;23062;13.952;100.608;2022-08-02T16:40:55;2.00;;;1.00;;
37169;SDS011;23062;13.952;100.608;2022-08-02T16:45:44;5.00;;;3.00;;
37169;SDS011;23062;13.952;100.608;2022-08-02T16:50:34;3.00;;;1.00;;
37169;SDS011;23062;13.952;100.608;2022-08-02T16:55:25;2.00;;;1.00;;
37169;SDS011;23062;13.952;100.608;2022-08-02T17:00:15;2.00;;;1.00;;
37169;SDS011;23062;13.952;100.608;2022-08-02T17:05:06;4.00;;;2.00;;
37169;SDS011;23062;13.952;100.608;2022-08-02T17:09:56;2.00;;;1.00;;
37169;SDS011;23062;13.952;100.608;2022-08-02T17:14:46;2.00;;;1.00;;
37169;SDS011;23062;13.952;100.608;2022-08-02T17:19:35;2.00;;;1.00;;
37169;SDS011;23062;13.952;100.608;2022-08-02T17:24:25;2.00;;;1.00;;
37169;SDS011;23062;13.952;100.608;2022-08-02T17:29:15;2.00;;;1.00;;
37169;SDS011;23062;13.952;100.608;2022-08-02T17:34:04;2.00;;;1.00;;
37169;SDS011;23062;13.952;100.608;2022-08-02T17:38:54;2.00;;;1.00;;
37169;SDS011;23062;13.952;100.608;2022-08-02T17:43:44;3.00;;;2.00;;
37169;SDS011;23062;13.952;100.608;2022-08-02T17:48:34;1.00;;;0.00;;
37169;SDS011;23062;13.952;100.608;2022-08-02T17:53:41;3.00;;;2.00;;
37169;SDS011;23062;13.952;100.608;2022-08-02T17:58:31;2.00;;;1.00;;
37169;SDS011;23062;13.952;100.608;2022-08-02T18:03:21;2.00;;;1.00;;
37169;SDS011;23062;13.952;100.608;2022-08-02T18:08:11;3.00;;;1.00;;
37169;SDS011;23062;13.952;100.608;2022-08-02T18:13:00;2.00;;;1.00;;
37169;SDS011;23062;13.952;100.608;2022-08-02T18:17:50;2.00;;;1.00;;
37169;SDS011;23062;13.952;100.608;2022-08-02T18:22:41;2.00;;;1.00;;
37169;SDS011;23062;13.952;100.608;2022-08-02T18:27:32;2.00;;;1.00;;
37169;SDS011;23062;13.952;100.608;2022-08-02T18:32:21;3.00;;;2.00;;
37169;SDS011;23062;13.952;100.608;2022-08-02T18:37:11;2.00;;;1.00;;
37169;SDS011;23062;13.952;100.608;2022-08-02T18:42:01;2.00;;;1.00;;
37169;SDS011;23062;13.952;100.608;2022-08-02T18:46:51;2.00;;;1.00;;
37169;SDS011;23062;13.952;100.608;2022-08-02T18:51:41;3.00;;;2.00;;
37169;SDS011;23062;13.952;100.608;2022-08-02T18:56:31;4.00;;;2.00;;
37169;SDS011;23062;13.952;100.608;2022-08-02T19:01:20;2.00;;;1.00;;
37169;SDS011;23062;13.952;100.608;2022-08-02T19:06:10;2.00;;;1.00;;
37169;SDS011;23062;13.952;100.608;2022-08-02T19:11:00;4.00;;;3.00;;
37169;SDS011;23062;13.952;100.608;2022-08-02T19:15:50;2.00;;;1.00;;
37169;SDS011;23062;13.952;100.608;2022-08-02T19:20:41;2.00;;;1.00;;
37169;SDS011;23062;13.952;100.608;2022-08-02T19:25:31;2.00;;;1.00;;
37169;SDS011;23062;13.952;100.608;2022-08-02T19:30:21;4.00;;;2.00;;
37169;SDS011;23062;13.952;100.608;2022-08-02T19:35:12;3.00;;;2.00;;
37169;SDS011;23062;13.952;100.608;2022-08-02T19:40:03;2.00;;;1.00;;
37169;SDS011;23062;13.952;100.608;2022-08-02T19:44:53;4.00;;;1.87;;
37169;SDS011;23062;13.952;100.608;2022-08-02T19:49:43;4.00;;;2.00;;
37169;SDS011;23062;13.952;100.608;2022-08-02T19:54:33;2.00;;;1.00;;
37169;SDS011;23062;13.952;100.608;2022-08-02T19:59:23;2.00;;;1.00;;
37169;SDS011;23062;13.952;100.608;2022-08-02T20:04:12;3.00;;;2.00;;
37169;SDS011;23062;13.952;100.608;2022-08-02T20:09:05;3.00;;;2.00;;
37169;SDS011;23062;13.952;100.608;2022-08-02T20:13:55;3.00;;;2.00;;
37169;SDS011;23062;13.952;100.608;2022-08-02T20:18:45;4.00;;;3.00;;
37169;SDS011;23062;13.952;100.608;2022-08-02T20:23:34;3.00;;;2.00;;
37169;SDS011;23062;13.952;100.608;2022-08-02T20:28:24;3.00;;;2.00;;
37169;SDS011;23062;13.952;100.608;2022-08-02T20:33:13;4.00;;;2.00;;
37169;SDS011;23062;13.952;100.608;2022-08-02T20:38:06;3.00;;;2.00;;
37169;SDS011;23062;13.952;100.608;2022-08-02T20:42:55;5.00;;;3.00;;
37169;SDS011;23062;13.952;100.608;2022-08-02T20:47:45;3.00;;;2.00;;
37169;SDS011;23062;13.952;100.608;2022-08-02T20:52:36;3.00;;;2.00;;
37169;SDS011;23062;13.952;100.608;2022-08-02T20:57:26;3.00;;;2.00;;
37169;SDS011;23062;13.952;100.608;2022-08-02T21:02:15;2.00;;;1.00;;
37169;SDS011;23062;13.952;100.608;2022-08-02T21:07:05;4.00;;;3.00;;
37169;SDS011;23062;13.952;100.608;2022-08-02T21:11:56;4.00;;;3.00;;
37169;SDS011;23062;13.952;100.608;2022-08-02T21:16:46;5.00;;;3.00;;
37169;SDS011;23062;13.952;100.608;2022-08-02T21:21:36;5.00;;;3.00;;
37169;SDS011;23062;13.952;100.608;2022-08-02T21:26:28;6.00;;;4.00;;
37169;SDS011;23062;13.952;100.608;2022-08-02T21:31:17;5.00;;;3.00;;
37169;SDS011;23062;13.952;100.608;2022-08-02T21:36:07;5.00;;;3.00;;
37169;SDS011;23062;13.952;100.608;2022-08-02T21:40:57;6.00;;;4.00;;
37169;SDS011;23062;13.952;100.608;2022-08-02T21:45:47;4.00;;;2.00;;
37169;SDS011;23062;13.952;100.608;2022-08-02T21:50:37;4.00;;;2.00;;
37169;SDS011;23062;13.952;100.608;2022-08-02T21:55:27;3.00;;;2.00;;
37169;SDS011;23062;13.952;100.608;2022-08-02T22:00:17;5.00;;;3.00;;
37169;SDS011;23062;13.952;100.608;2022-08-02T22:05:07;5.00;;;3.00;;
37169;SDS011;23062;13.952;100.608;2022-08-02T22:09:58;3.00;;;2.00;;
37169;SDS011;23062;13.952;100.608;2022-08-02T22:14:47;6.00;;;4.00;;
37169;SDS011;23062;13.952;100.608;2022-08-02T22:19:37;5.00;;;3.00;;
37169;SDS011;23062;13.952;100.608;2022-08-02T22:24:26;5.00;;;3.00;;
37169;SDS011;23062;13.952;100.608;2022-08-02T22:29:16;4.00;;;2.00;;
37169;SDS011;23062;13.952;100.608;2022-08-02T22:34:07;3.00;;;2.00;;
37169;SDS011;23062;13.952;100.608;2022-08-02T22:38:58;4.00;;;3.00;;
37169;SDS011;23062;13.952;100.608;2022-08-02T22:43:50;4.00;;;2.00;;
37169;SDS011;23062;13.952;100.608;2022-08-02T22:48:40;4.00;;;2.00;;
37169;SDS011;23062;13.952;100.608;2022-08-02T22:53:30;5.00;;;3.00;;
37169;SDS011;23062;13.952;100.608;2022-08-02T22:58:20;5.00;;;3.00;;
37169;SDS011;23062;13.952;100.608;2022-08-02T23:03:09;4.00;;;2.00;;
37169;SDS011;23062;13.952;100.608;2022-08-02T23:07:59;5.00;;;3.00;;
37169;SDS011;23062;13.952;100.608;2022-08-02T23:12:49;5.00;;;3.00;;
37169;SDS011;23062;13.952;100.608;2022-08-02T23:17:40;4.00;;;3.00;;
37169;SDS011;23062;13.952;100.608;2022-08-02T23:22:47;6.00;;;4.00;;
37169;SDS011;23062;13.952;100.608;2022-08-02T23:27:37;5.00;;;3.00;;
37169;SDS011;23062;13.952;100.608;2022-08-02T23:32:27;6.00;;;4.00;;
37169;SDS011;23062;13.952;100.608;2022-08-02T23:37:17;5.00;;;3.00;;
37169;SDS011;23062;13.952;100.608;2022-08-02T23:42:08;11.00;;;8.00;;
37169;SDS011;23062;13.952;100.608;2022-08-02T23:46:58;7.00;;;5.00;;
37169;SDS011;23062;13.952;100.608;2022-08-02T23:51:48;6.00;;;4.00;;
37169;SDS011;23062;13.952;100.608;2022-08-02T23:56:38;7.00;;;4.00;;
